Taitung Airport
RCFN : rendu visible

Aérodrome :











RETROUVEZ-NOUS SUR...

 
LOGIN :

S'inscrire | Disclaimer

   EN    FR    IT 

 









Légende :    VFR   VFR Marginal   IFR   IFR Intensif   IFR Très Intensif
Visi : 
Plafond : 
>= 8 km
>= 3000ft
5 à 8 km
1000 à 3000 ft
1500m à 5 km
500 à 1000 ft
800 à 1500m
200 à 500 ft
< 800m
< 200 ft
Symboles :   Orages  Brouillard  Fortes neiges  Fortes précipitations  Vent > 20 kt






- Altitude de l'aérodrome : 143 ft
- Code IATA : TTT


RCFN - Taitung

DERNIER METAR :
  • 272230Z 35005KT 280V030 9999 -RA FEW008 SCT030 BKN040 16/15 Q1016 NOSIG RMK A3001

METARs EXPIRÉS :
  • 272200Z 30003KT 250V010 9999 -RA FEW020 SCT030 BKN100 16/15 Q1016 NOSIG RMK A3001 RA AMT 0.4MM

TAF TAF RCFN
Valide du 27 à 18h jusqu'au 28 à 18h UTC


271700Z 2718/2818 35005KT 9999 FEW015 BKN032
TEMPO 2722/2802 01010KT FEW010 BKN020 BKN040
TEMPO 2804/2808 03012KT 5000 RA SCT008 BKN016 BKN040



MET'MAP, la Météo Aéronautique d'un coup d'oeil ! - Copyright ORBIFLY Décembre 2007 - Disclaimer

ORBIFLY MET'MAP TEAM :

Programmation & Développement : Alexandra Zaïnal
Sur une idée originale de : Baudouin d'Aumeries
Assistance à la programmation : Marc-Olivier Méhu
Soutien technique & logistique : Manuel Goepfert

Contact : metmap@orbifly.com




SOURCES & CREDITS :

   NOAA       Earth
Advisory